sensor_id;sensor_type;location;lat;lon;timestamp;temperature;humidity
40023;DHT22;25713;-35.352;149.036;2023-02-05T00:00:59;17.90;68.60
40023;DHT22;25713;-35.352;149.036;2023-02-05T00:03:28;18.00;67.70
40023;DHT22;25713;-35.352;149.036;2023-02-05T00:05:58;18.10;67.50
40023;DHT22;25713;-35.352;149.036;2023-02-05T00:08:27;18.20;67.80
40023;DHT22;25713;-35.352;149.036;2023-02-05T00:10:59;18.40;66.50
40023;DHT22;25713;-35.352;149.036;2023-02-05T00:13:28;18.40;65.70
40023;DHT22;25713;-35.352;149.036;2023-02-05T00:15:57;18.50;66.80
40023;DHT22;25713;-35.352;149.036;2023-02-05T00:18:27;18.60;65.40
40023;DHT22;25713;-35.352;149.036;2023-02-05T00:20:56;18.60;65.20
40023;DHT22;25713;-35.352;149.036;2023-02-05T00:23:26;18.80;63.60
40023;DHT22;25713;-35.352;149.036;2023-02-05T00:25:57;18.80;64.90
40023;DHT22;25713;-35.352;149.036;2023-02-05T00:28:26;18.80;64.40
40023;DHT22;25713;-35.352;149.036;2023-02-05T00:30:56;18.70;65.50
40023;DHT22;25713;-35.352;149.036;2023-02-05T00:33:25;18.70;65.00
40023;DHT22;25713;-35.352;149.036;2023-02-05T00:35:55;18.70;66.70
40023;DHT22;25713;-35.352;149.036;2023-02-05T00:38:24;18.70;65.30
40023;DHT22;25713;-35.352;149.036;2023-02-05T00:40:53;18.80;67.40
40023;DHT22;25713;-35.352;149.036;2023-02-05T00:43:25;18.80;65.80
40023;DHT22;25713;-35.352;149.036;2023-02-05T00:45:55;18.80;67.60
40023;DHT22;25713;-35.352;149.036;2023-02-05T00:48:24;18.80;65.10
40023;DHT22;25713;-35.352;149.036;2023-02-05T00:50:54;18.80;66.40
40023;DHT22;25713;-35.352;149.036;2023-02-05T00:53:24;18.80;65.40
40023;DHT22;25713;-35.352;149.036;2023-02-05T00:55:54;18.80;66.40
40023;DHT22;25713;-35.352;149.036;2023-02-05T00:58:25;18.90;67.50
40023;DHT22;25713;-35.352;149.036;2023-02-05T01:00:55;19.00;64.20
40023;DHT22;25713;-35.352;149.036;2023-02-05T01:03:25;19.00;65.70
40023;DHT22;25713;-35.352;149.036;2023-02-05T01:05:55;19.00;66.70
40023;DHT22;25713;-35.352;149.036;2023-02-05T01:08:25;19.00;65.30
40023;DHT22;25713;-35.352;149.036;2023-02-05T01:10:54;19.10;65.40
40023;DHT22;25713;-35.352;149.036;2023-02-05T01:13:25;19.20;63.30
40023;DHT22;25713;-35.352;149.036;2023-02-05T01:15:56;19.10;68.00
40023;DHT22;25713;-35.352;149.036;2023-02-05T01:18:25;19.30;64.30
40023;DHT22;25713;-35.352;149.036;2023-02-05T01:20:55;19.20;66.40
40023;DHT22;25713;-35.352;149.036;2023-02-05T01:23:25;19.30;64.30
40023;DHT22;25713;-35.352;149.036;2023-02-05T01:25:54;19.30;64.60
40023;DHT22;25713;-35.352;149.036;2023-02-05T01:28:25;19.30;65.40
40023;DHT22;25713;-35.352;149.036;2023-02-05T01:30:56;19.30;66.20
40023;DHT22;25713;-35.352;149.036;2023-02-05T01:33:25;19.40;64.80
40023;DHT22;25713;-35.352;149.036;2023-02-05T01:35:55;19.40;64.40
40023;DHT22;25713;-35.352;149.036;2023-02-05T01:38:25;19.40;64.00
40023;DHT22;25713;-35.352;149.036;2023-02-05T01:40:54;19.50;64.80
40023;DHT22;25713;-35.352;149.036;2023-02-05T01:43:27;19.50;60.70
40023;DHT22;25713;-35.352;149.036;2023-02-05T01:46:18;19.50;65.10
40023;DHT22;25713;-35.352;149.036;2023-02-05T01:48:51;19.70;62.30
40023;DHT22;25713;-35.352;149.036;2023-02-05T01:51:23;19.70;63.70
40023;DHT22;25713;-35.352;149.036;2023-02-05T01:53:55;19.60;65.90
40023;DHT22;25713;-35.352;149.036;2023-02-05T01:56:27;19.70;62.20
40023;DHT22;25713;-35.352;149.036;2023-02-05T01:59:04;19.70;62.30
40023;DHT22;25713;-35.352;149.036;2023-02-05T02:01:36;19.70;63.60
40023;DHT22;25713;-35.352;149.036;2023-02-05T02:04:07;19.80;63.40
40023;DHT22;25713;-35.352;149.036;2023-02-05T02:06:38;19.90;61.20
40023;DHT22;25713;-35.352;149.036;2023-02-05T02:09:09;20.00;63.40
40023;DHT22;25713;-35.352;149.036;2023-02-05T02:11:40;19.90;64.40
40023;DHT22;25713;-35.352;149.036;2023-02-05T02:14:14;20.00;63.20
40023;DHT22;25713;-35.352;149.036;2023-02-05T02:16:43;20.00;61.70
40023;DHT22;25713;-35.352;149.036;2023-02-05T02:19:18;20.00;64.20
40023;DHT22;25713;-35.352;149.036;2023-02-05T02:22:26;20.10;61.20
40023;DHT22;25713;-35.352;149.036;2023-02-05T02:28:08;20.30;62.40
40023;DHT22;25713;-35.352;149.036;2023-02-05T02:30:41;20.40;61.50
40023;DHT22;25713;-35.352;149.036;2023-02-05T02:33:16;20.40;63.20
40023;DHT22;25713;-35.352;149.036;2023-02-05T02:35:50;20.40;61.90
40023;DHT22;25713;-35.352;149.036;2023-02-05T02:38:28;20.40;62.20
40023;DHT22;25713;-35.352;149.036;2023-02-05T02:41:04;20.50;60.50
40023;DHT22;25713;-35.352;149.036;2023-02-05T02:43:45;20.40;63.40
40023;DHT22;25713;-35.352;149.036;2023-02-05T02:46:20;20.60;60.00
40023;DHT22;25713;-35.352;149.036;2023-02-05T02:48:51;20.60;60.50
40023;DHT22;25713;-35.352;149.036;2023-02-05T02:51:23;20.60;61.30
40023;DHT22;25713;-35.352;149.036;2023-02-05T02:53:56;20.60;60.70
40023;DHT22;25713;-35.352;149.036;2023-02-05T02:56:27;20.50;65.10
40023;DHT22;25713;-35.352;149.036;2023-02-05T02:59:04;20.50;62.40
40023;DHT22;25713;-35.352;149.036;2023-02-05T03:01:38;20.70;61.70
40023;DHT22;25713;-35.352;149.036;2023-02-05T03:04:12;20.70;60.20
40023;DHT22;25713;-35.352;149.036;2023-02-05T03:06:44;20.80;61.00
40023;DHT22;25713;-35.352;149.036;2023-02-05T03:09:20;20.80;60.30
40023;DHT22;25713;-35.352;149.036;2023-02-05T03:11:53;20.90;61.90
40023;DHT22;25713;-35.352;149.036;2023-02-05T03:14:27;20.90;62.20
40023;DHT22;25713;-35.352;149.036;2023-02-05T03:16:57;20.90;60.50
40023;DHT22;25713;-35.352;149.036;2023-02-05T03:19:27;20.90;60.10
40023;DHT22;25713;-35.352;149.036;2023-02-05T03:22:00;20.80;62.80
40023;DHT22;25713;-35.352;149.036;2023-02-05T03:24:30;21.10;58.70
40023;DHT22;25713;-35.352;149.036;2023-02-05T03:27:00;21.10;59.90
40023;DHT22;25713;-35.352;149.036;2023-02-05T03:29:35;21.00;62.50
40023;DHT22;25713;-35.352;149.036;2023-02-05T03:32:20;21.00;61.10
40023;DHT22;25713;-35.352;149.036;2023-02-05T03:35:06;21.10;59.60
40023;DHT22;25713;-35.352;149.036;2023-02-05T03:37:46;21.10;59.50
40023;DHT22;25713;-35.352;149.036;2023-02-05T03:40:24;21.10;61.30
40023;DHT22;25713;-35.352;149.036;2023-02-05T03:43:04;21.20;61.60
40023;DHT22;25713;-35.352;149.036;2023-02-05T03:45:45;21.20;60.00
40023;DHT22;25713;-35.352;149.036;2023-02-05T03:48:27;21.30;61.50
40023;DHT22;25713;-35.352;149.036;2023-02-05T03:51:05;21.30;59.50
40023;DHT22;25713;-35.352;149.036;2023-02-05T03:53:45;21.70;57.80
40023;DHT22;25713;-35.352;149.036;2023-02-05T03:56:20;21.70;58.90
40023;DHT22;25713;-35.352;149.036;2023-02-05T03:58:53;21.60;61.10
40023;DHT22;25713;-35.352;149.036;2023-02-05T04:01:28;21.50;61.10
40023;DHT22;25713;-35.352;149.036;2023-02-05T04:03:58;21.30;60.80
40023;DHT22;25713;-35.352;149.036;2023-02-05T04:06:29;21.40;59.60
40023;DHT22;25713;-35.352;149.036;2023-02-05T04:08:58;21.50;59.00
40023;DHT22;25713;-35.352;149.036;2023-02-05T04:11:28;21.50;57.90
40023;DHT22;25713;-35.352;149.036;2023-02-05T04:13:57;21.50;61.90
40023;DHT22;25713;-35.352;149.036;2023-02-05T04:16:30;21.50;60.50
40023;DHT22;25713;-35.352;149.036;2023-02-05T04:19:01;21.40;61.00
40023;DHT22;25713;-35.352;149.036;2023-02-05T04:21:31;21.50;60.00
40023;DHT22;25713;-35.352;149.036;2023-02-05T04:24:02;21.60;60.60
40023;DHT22;25713;-35.352;149.036;2023-02-05T04:26:31;21.50;59.70
40023;DHT22;25713;-35.352;149.036;2023-02-05T04:29:05;21.50;61.30
40023;DHT22;25713;-35.352;149.036;2023-02-05T04:31:43;21.60;58.00
40023;DHT22;25713;-35.352;149.036;2023-02-05T04:34:14;21.70;59.60
40023;DHT22;25713;-35.352;149.036;2023-02-05T04:36:44;21.70;59.40
40023;DHT22;25713;-35.352;149.036;2023-02-05T04:39:15;21.80;60.20
40023;DHT22;25713;-35.352;149.036;2023-02-05T04:41:44;21.80;59.10
40023;DHT22;25713;-35.352;149.036;2023-02-05T04:44:14;21.80;60.60
40023;DHT22;25713;-35.352;149.036;2023-02-05T04:46:45;21.80;59.80
40023;DHT22;25713;-35.352;149.036;2023-02-05T04:49:15;21.80;61.10
40023;DHT22;25713;-35.352;149.036;2023-02-05T04:51:44;21.80;59.90
40023;DHT22;25713;-35.352;149.036;2023-02-05T04:54:14;21.80;60.40
40023;DHT22;25713;-35.352;149.036;2023-02-05T04:56:44;21.80;59.10
40023;DHT22;25713;-35.352;149.036;2023-02-05T04:59:14;21.90;59.80
40023;DHT22;25713;-35.352;149.036;2023-02-05T05:01:46;21.80;60.70
40023;DHT22;25713;-35.352;149.036;2023-02-05T05:04:15;22.00;59.50
40023;DHT22;25713;-35.352;149.036;2023-02-05T05:06:45;21.90;60.20
40023;DHT22;25713;-35.352;149.036;2023-02-05T05:09:14;21.90;61.60
40023;DHT22;25713;-35.352;149.036;2023-02-05T05:11:43;21.90;60.00
40023;DHT22;25713;-35.352;149.036;2023-02-05T05:14:13;21.80;61.50
40023;DHT22;25713;-35.352;149.036;2023-02-05T05:16:42;21.80;59.40
40023;DHT22;25713;-35.352;149.036;2023-02-05T05:19:13;21.80;60.50
40023;DHT22;25713;-35.352;149.036;2023-02-05T05:21:43;22.00;59.10
40023;DHT22;25713;-35.352;149.036;2023-02-05T05:24:12;22.00;58.80
40023;DHT22;25713;-35.352;149.036;2023-02-05T05:26:42;22.10;58.70
40023;DHT22;25713;-35.352;149.036;2023-02-05T05:29:12;22.30;58.10
40023;DHT22;25713;-35.352;149.036;2023-02-05T05:31:42;22.40;57.50
40023;DHT22;25713;-35.352;149.036;2023-02-05T05:34:14;22.40;57.20
40023;DHT22;25713;-35.352;149.036;2023-02-05T05:36:43;22.40;57.80
40023;DHT22;25713;-35.352;149.036;2023-02-05T05:39:13;22.50;57.30
40023;DHT22;25713;-35.352;149.036;2023-02-05T05:41:42;22.70;57.40
40023;DHT22;25713;-35.352;149.036;2023-02-05T05:44:12;22.70;56.60
40023;DHT22;25713;-35.352;149.036;2023-02-05T05:46:41;22.70;55.70
40023;DHT22;25713;-35.352;149.036;2023-02-05T05:49:13;22.60;56.90
40023;DHT22;25713;-35.352;149.036;2023-02-05T05:51:42;22.50;58.20
40023;DHT22;25713;-35.352;149.036;2023-02-05T05:54:11;22.50;57.00
40023;DHT22;25713;-35.352;149.036;2023-02-05T05:56:41;22.40;58.70
40023;DHT22;25713;-35.352;149.036;2023-02-05T05:59:11;22.30;57.70
40023;DHT22;25713;-35.352;149.036;2023-02-05T06:01:41;22.40;57.30
40023;DHT22;25713;-35.352;149.036;2023-02-05T06:04:10;22.40;58.30
40023;DHT22;25713;-35.352;149.036;2023-02-05T06:06:41;22.40;59.30
40023;DHT22;25713;-35.352;149.036;2023-02-05T06:09:11;22.30;58.50
40023;DHT22;25713;-35.352;149.036;2023-02-05T06:11:40;22.40;58.00
40023;DHT22;25713;-35.352;149.036;2023-02-05T06:14:10;22.30;57.70
40023;DHT22;25713;-35.352;149.036;2023-02-05T06:16:39;22.50;58.30
40023;DHT22;25713;-35.352;149.036;2023-02-05T06:19:09;22.60;57.60
40023;DHT22;25713;-35.352;149.036;2023-02-05T06:21:40;22.60;56.50
40023;DHT22;25713;-35.352;149.036;2023-02-05T06:24:10;22.50;57.60
40023;DHT22;25713;-35.352;149.036;2023-02-05T06:26:39;22.40;60.20
40023;DHT22;25713;-35.352;149.036;2023-02-05T06:29:08;22.40;56.70
40023;DHT22;25713;-35.352;149.036;2023-02-05T06:31:38;22.50;56.80
40023;DHT22;25713;-35.352;149.036;2023-02-05T06:34:07;22.40;56.90
40023;DHT22;25713;-35.352;149.036;2023-02-05T06:36:37;22.40;55.80
40023;DHT22;25713;-35.352;149.036;2023-02-05T06:39:08;22.30;56.00
40023;DHT22;25713;-35.352;149.036;2023-02-05T06:41:37;22.20;60.50
40023;DHT22;25713;-35.352;149.036;2023-02-05T06:44:07;22.10;58.80
40023;DHT22;25713;-35.352;149.036;2023-02-05T06:46:36;22.10;59.40
40023;DHT22;25713;-35.352;149.036;2023-02-05T06:49:15;22.00;57.80
40023;DHT22;25713;-35.352;149.036;2023-02-05T06:54:20;22.20;57.00
40023;DHT22;25713;-35.352;149.036;2023-02-05T06:56:49;22.10;57.60
40023;DHT22;25713;-35.352;149.036;2023-02-05T06:59:19;22.10;57.50
40023;DHT22;25713;-35.352;149.036;2023-02-05T07:01:48;22.00;60.50
40023;DHT22;25713;-35.352;149.036;2023-02-05T07:04:18;22.00;59.20
40023;DHT22;25713;-35.352;149.036;2023-02-05T07:06:47;21.90;56.60
40023;DHT22;25713;-35.352;149.036;2023-02-05T07:09:20;22.10;55.80
40023;DHT22;25713;-35.352;149.036;2023-02-05T07:11:50;22.10;55.60
40023;DHT22;25713;-35.352;149.036;2023-02-05T07:14:19;22.10;57.10
40023;DHT22;25713;-35.352;149.036;2023-02-05T07:16:49;22.00;57.00
40023;DHT22;25713;-35.352;149.036;2023-02-05T07:19:18;21.90;55.40
40023;DHT22;25713;-35.352;149.036;2023-02-05T07:21:48;21.90;60.10
40023;DHT22;25713;-35.352;149.036;2023-02-05T07:24:19;21.80;59.20
40023;DHT22;25713;-35.352;149.036;2023-02-05T07:26:48;21.80;58.90
40023;DHT22;25713;-35.352;149.036;2023-02-05T07:29:18;21.70;59.60
40023;DHT22;25713;-35.352;149.036;2023-02-05T07:31:49;21.70;59.00
40023;DHT22;25713;-35.352;149.036;2023-02-05T07:34:19;21.70;54.50
40023;DHT22;25713;-35.352;149.036;2023-02-05T07:36:50;21.70;55.60
40023;DHT22;25713;-35.352;149.036;2023-02-05T07:39:21;21.70;58.10
40023;DHT22;25713;-35.352;149.036;2023-02-05T07:41:51;21.70;58.00
40023;DHT22;25713;-35.352;149.036;2023-02-05T07:44:29;21.70;58.80
40023;DHT22;25713;-35.352;149.036;2023-02-05T07:46:58;21.60;60.60
40023;DHT22;25713;-35.352;149.036;2023-02-05T07:49:28;21.60;60.10
40023;DHT22;25713;-35.352;149.036;2023-02-05T07:51:57;21.60;60.40
40023;DHT22;25713;-35.352;149.036;2023-02-05T07:54:29;21.60;57.50
40023;DHT22;25713;-35.352;149.036;2023-02-05T07:56:58;21.60;59.30
40023;DHT22;25713;-35.352;149.036;2023-02-05T07:59:28;21.60;58.80
40023;DHT22;25713;-35.352;149.036;2023-02-05T08:01:57;21.60;58.10
40023;DHT22;25713;-35.352;149.036;2023-02-05T08:04:26;21.70;56.80
40023;DHT22;25713;-35.352;149.036;2023-02-05T08:06:56;21.70;60.30
40023;DHT22;25713;-35.352;149.036;2023-02-05T08:09:27;21.60;57.50
40023;DHT22;25713;-35.352;149.036;2023-02-05T08:11:57;21.70;58.40
40023;DHT22;25713;-35.352;149.036;2023-02-05T08:14:26;21.60;60.10
40023;DHT22;25713;-35.352;149.036;2023-02-05T08:16:55;21.60;59.10
40023;DHT22;25713;-35.352;149.036;2023-02-05T08:19:25;21.60;57.60
40023;DHT22;25713;-35.352;149.036;2023-02-05T08:21:54;21.60;58.80
40023;DHT22;25713;-35.352;149.036;2023-02-05T08:24:24;21.60;57.50
40023;DHT22;25713;-35.352;149.036;2023-02-05T08:26:55;21.60;60.40
40023;DHT22;25713;-35.352;149.036;2023-02-05T08:29:25;21.60;59.70
40023;DHT22;25713;-35.352;149.036;2023-02-05T08:31:54;21.50;58.50
40023;DHT22;25713;-35.352;149.036;2023-02-05T08:34:24;21.50;59.80
40023;DHT22;25713;-35.352;149.036;2023-02-05T08:36:53;21.50;58.30
40023;DHT22;25713;-35.352;149.036;2023-02-05T08:39:23;21.60;57.90
40023;DHT22;25713;-35.352;149.036;2023-02-05T08:41:57;21.60;58.20
40023;DHT22;25713;-35.352;149.036;2023-02-05T08:44:32;21.60;58.40
40023;DHT22;25713;-35.352;149.036;2023-02-05T08:47:03;21.60;58.10
40023;DHT22;25713;-35.352;149.036;2023-02-05T08:49:33;21.60;57.80
40023;DHT22;25713;-35.352;149.036;2023-02-05T08:52:04;21.60;59.20
40023;DHT22;25713;-35.352;149.036;2023-02-05T08:54:37;21.50;59.30
40023;DHT22;25713;-35.352;149.036;2023-02-05T08:57:09;21.50;58.10
40023;DHT22;25713;-35.352;149.036;2023-02-05T08:59:40;21.50;59.20
40023;DHT22;25713;-35.352;149.036;2023-02-05T09:02:14;21.50;59.40
40023;DHT22;25713;-35.352;149.036;2023-02-05T09:04:44;21.50;59.50
40023;DHT22;25713;-35.352;149.036;2023-02-05T09:07:14;21.40;59.30
40023;DHT22;25713;-35.352;149.036;2023-02-05T09:09:43;21.40;59.50
40023;DHT22;25713;-35.352;149.036;2023-02-05T09:12:15;21.40;59.50
40023;DHT22;25713;-35.352;149.036;2023-02-05T09:14:44;21.40;58.50
40023;DHT22;25713;-35.352;149.036;2023-02-05T09:17:14;21.40;59.00
40023;DHT22;25713;-35.352;149.036;2023-02-05T09:19:44;21.30;59.00
40023;DHT22;25713;-35.352;149.036;2023-02-05T09:22:13;21.30;58.90
40023;DHT22;25713;-35.352;149.036;2023-02-05T09:24:43;21.30;58.50
40023;DHT22;25713;-35.352;149.036;2023-02-05T09:27:14;21.30;58.10
40023;DHT22;25713;-35.352;149.036;2023-02-05T09:29:43;21.20;59.10
40023;DHT22;25713;-35.352;149.036;2023-02-05T09:32:13;21.20;59.20
40023;DHT22;25713;-35.352;149.036;2023-02-05T09:34:42;21.20;59.60
40023;DHT22;25713;-35.352;149.036;2023-02-05T09:37:12;21.10;59.80
40023;DHT22;25713;-35.352;149.036;2023-02-05T09:39:42;21.10;60.60
40023;DHT22;25713;-35.352;149.036;2023-02-05T09:42:18;21.00;59.90
40023;DHT22;25713;-35.352;149.036;2023-02-05T09:45:02;21.00;60.10
40023;DHT22;25713;-35.352;149.036;2023-02-05T09:47:40;21.00;62.90
40023;DHT22;25713;-35.352;149.036;2023-02-05T09:50:16;21.00;63.40
40023;DHT22;25713;-35.352;149.036;2023-02-05T09:52:47;21.00;68.20
40023;DHT22;25713;-35.352;149.036;2023-02-05T09:55:20;20.90;64.20
40023;DHT22;25713;-35.352;149.036;2023-02-05T09:57:54;20.90;65.40
40023;DHT22;25713;-35.352;149.036;2023-02-05T10:00:31;20.80;68.50
40023;DHT22;25713;-35.352;149.036;2023-02-05T10:03:08;20.80;69.80
40023;DHT22;25713;-35.352;149.036;2023-02-05T10:05:46;20.80;70.70
40023;DHT22;25713;-35.352;149.036;2023-02-05T10:08:25;20.80;71.60
40023;DHT22;25713;-35.352;149.036;2023-02-05T10:10:58;20.80;72.80
40023;DHT22;25713;-35.352;149.036;2023-02-05T10:13:36;20.80;73.10
40023;DHT22;25713;-35.352;149.036;2023-02-05T10:16:19;20.70;73.20
40023;DHT22;25713;-35.352;149.036;2023-02-05T10:18:58;20.70;73.80
40023;DHT22;25713;-35.352;149.036;2023-02-05T10:21:43;20.60;74.50
40023;DHT22;25713;-35.352;149.036;2023-02-05T10:24:32;20.60;74.80
40023;DHT22;25713;-35.352;149.036;2023-02-05T10:27:08;20.60;75.30
40023;DHT22;25713;-35.352;149.036;2023-02-05T10:29:51;20.60;75.80
40023;DHT22;25713;-35.352;149.036;2023-02-05T10:32:21;20.50;75.90
40023;DHT22;25713;-35.352;149.036;2023-02-05T10:34:57;20.50;76.30
40023;DHT22;25713;-35.352;149.036;2023-02-05T10:37:37;20.50;76.40
40023;DHT22;25713;-35.352;149.036;2023-02-05T10:40:15;20.40;76.70
40023;DHT22;25713;-35.352;149.036;2023-02-05T10:42:48;20.40;77.00
40023;DHT22;25713;-35.352;149.036;2023-02-05T10:45:22;20.40;77.00
40023;DHT22;25713;-35.352;149.036;2023-02-05T10:48:21;20.30;77.00
40023;DHT22;25713;-35.352;149.036;2023-02-05T10:50:56;20.30;77.40
40023;DHT22;25713;-35.352;149.036;2023-02-05T10:53:29;20.40;77.30
40023;DHT22;25713;-35.352;149.036;2023-02-05T10:55:59;20.30;77.40
40023;DHT22;25713;-35.352;149.036;2023-02-05T10:58:37;20.30;77.60
40023;DHT22;25713;-35.352;149.036;2023-02-05T11:01:13;20.40;77.60
40023;DHT22;25713;-35.352;149.036;2023-02-05T11:03:55;20.30;77.80
40023;DHT22;25713;-35.352;149.036;2023-02-05T11:06:30;20.20;78.40
40023;DHT22;25713;-35.352;149.036;2023-02-05T11:09:01;20.20;78.20
40023;DHT22;25713;-35.352;149.036;2023-02-05T11:11:31;20.20;78.20
40023;DHT22;25713;-35.352;149.036;2023-02-05T11:14:03;20.20;78.40
40023;DHT22;25713;-35.352;149.036;2023-02-05T11:16:42;20.10;78.50
40023;DHT22;25713;-35.352;149.036;2023-02-05T11:19:19;20.10;79.50
40023;DHT22;25713;-35.352;149.036;2023-02-05T11:21:52;20.00;79.50
40023;DHT22;25713;-35.352;149.036;2023-02-05T11:24:24;20.00;79.20
40023;DHT22;25713;-35.352;149.036;2023-02-05T11:29:36;20.10;79.20
40023;DHT22;25713;-35.352;149.036;2023-02-05T11:32:18;20.10;79.20
40023;DHT22;25713;-35.352;149.036;2023-02-05T11:34:47;20.10;79.10
40023;DHT22;25713;-35.352;149.036;2023-02-05T11:37:18;20.10;79.30
40023;DHT22;25713;-35.352;149.036;2023-02-05T11:39:52;20.10;79.20
40023;DHT22;25713;-35.352;149.036;2023-02-05T11:42:23;20.10;79.70
40023;DHT22;25713;-35.352;149.036;2023-02-05T11:44:53;20.00;79.70
40023;DHT22;25713;-35.352;149.036;2023-02-05T11:47:28;20.00;79.30
40023;DHT22;25713;-35.352;149.036;2023-02-05T11:49:59;20.10;79.60
40023;DHT22;25713;-35.352;149.036;2023-02-05T11:52:31;20.10;80.10
40023;DHT22;25713;-35.352;149.036;2023-02-05T11:55:02;20.10;79.80
40023;DHT22;25713;-35.352;149.036;2023-02-05T11:57:33;20.10;79.60
40023;DHT22;25713;-35.352;149.036;2023-02-05T12:00:19;20.00;79.60
40023;DHT22;25713;-35.352;149.036;2023-02-05T12:02:50;20.00;80.10
40023;DHT22;25713;-35.352;149.036;2023-02-05T12:05:31;20.00;80.00
40023;DHT22;25713;-35.352;149.036;2023-02-05T12:08:09;20.10;80.10
40023;DHT22;25713;-35.352;149.036;2023-02-05T12:10:42;20.00;80.30
40023;DHT22;25713;-35.352;149.036;2023-02-05T12:13:21;20.10;79.90
40023;DHT22;25713;-35.352;149.036;2023-02-05T12:15:59;20.10;80.60
40023;DHT22;25713;-35.352;149.036;2023-02-05T12:18:44;20.10;80.80
40023;DHT22;25713;-35.352;149.036;2023-02-05T12:21:24;20.10;80.60
40023;DHT22;25713;-35.352;149.036;2023-02-05T12:27:01;20.10;80.60
40023;DHT22;25713;-35.352;149.036;2023-02-05T12:29:50;20.10;80.50
40023;DHT22;25713;-35.352;149.036;2023-02-05T12:32:31;20.00;80.60
40023;DHT22;25713;-35.352;149.036;2023-02-05T12:35:15;20.00;80.70
40023;DHT22;25713;-35.352;149.036;2023-02-05T12:37:53;20.10;80.90
40023;DHT22;25713;-35.352;149.036;2023-02-05T12:40:38;20.10;81.60
40023;DHT22;25713;-35.352;149.036;2023-02-05T12:43:29;20.00;81.40
40023;DHT22;25713;-35.352;149.036;2023-02-05T12:46:09;20.10;81.30
40023;DHT22;25713;-35.352;149.036;2023-02-05T12:48:55;20.10;81.60
40023;DHT22;25713;-35.352;149.036;2023-02-05T12:51:41;20.10;81.10
40023;DHT22;25713;-35.352;149.036;2023-02-05T12:54:26;20.00;81.40
40023;DHT22;25713;-35.352;149.036;2023-02-05T12:57:01;20.10;81.00
40023;DHT22;25713;-35.352;149.036;2023-02-05T12:59:39;20.00;81.50
40023;DHT22;25713;-35.352;149.036;2023-02-05T13:02:21;20.00;81.50
40023;DHT22;25713;-35.352;149.036;2023-02-05T13:04:53;20.00;81.50
40023;DHT22;25713;-35.352;149.036;2023-02-05T13:07:34;20.00;81.70
40023;DHT22;25713;-35.352;149.036;2023-02-05T13:10:06;20.00;81.90
40023;DHT22;25713;-35.352;149.036;2023-02-05T13:12:43;20.00;82.00
40023;DHT22;25713;-35.352;149.036;2023-02-05T13:15:17;20.00;82.50
40023;DHT22;25713;-35.352;149.036;2023-02-05T13:17:54;20.00;82.10
40023;DHT22;25713;-35.352;149.036;2023-02-05T13:20:29;19.90;82.10
40023;DHT22;25713;-35.352;149.036;2023-02-05T13:23:01;19.90;81.90
40023;DHT22;25713;-35.352;149.036;2023-02-05T13:25:34;19.90;82.10
40023;DHT22;25713;-35.352;149.036;2023-02-05T13:30:56;19.90;82.40
40023;DHT22;25713;-35.352;149.036;2023-02-05T13:33:26;19.90;82.80
40023;DHT22;25713;-35.352;149.036;2023-02-05T13:36:01;19.90;82.50
40023;DHT22;25713;-35.352;149.036;2023-02-05T13:38:50;19.90;82.40
40023;DHT22;25713;-35.352;149.036;2023-02-05T13:44:47;19.90;82.90
40023;DHT22;25713;-35.352;149.036;2023-02-05T13:47:49;19.90;82.50
40023;DHT22;25713;-35.352;149.036;2023-02-05T13:53:36;19.80;82.60
40023;DHT22;25713;-35.352;149.036;2023-02-05T13:56:38;19.80;82.70
40023;DHT22;25713;-35.352;149.036;2023-02-05T13:59:13;19.80;82.90
40023;DHT22;25713;-35.352;149.036;2023-02-05T14:01:49;19.80;82.90
40023;DHT22;25713;-35.352;149.036;2023-02-05T14:04:22;19.80;83.00
40023;DHT22;25713;-35.352;149.036;2023-02-05T14:06:59;19.80;83.10
40023;DHT22;25713;-35.352;149.036;2023-02-05T14:09:37;19.80;83.00
40023;DHT22;25713;-35.352;149.036;2023-02-05T14:12:10;19.80;83.20
40023;DHT22;25713;-35.352;149.036;2023-02-05T14:14:40;19.80;83.20
40023;DHT22;25713;-35.352;149.036;2023-02-05T14:20:36;19.80;83.20
40023;DHT22;25713;-35.352;149.036;2023-02-05T14:23:14;19.80;83.60
40023;DHT22;25713;-35.352;149.036;2023-02-05T14:26:07;19.80;83.40
40023;DHT22;25713;-35.352;149.036;2023-02-05T14:28:44;19.80;83.50
40023;DHT22;25713;-35.352;149.036;2023-02-05T14:34:56;19.70;83.50
40023;DHT22;25713;-35.352;149.036;2023-02-05T14:37:36;19.80;83.80
40023;DHT22;25713;-35.352;149.036;2023-02-05T14:40:25;19.70;84.00
40023;DHT22;25713;-35.352;149.036;2023-02-05T14:42:56;19.70;83.80
40023;DHT22;25713;-35.352;149.036;2023-02-05T14:45:29;19.70;84.20
40023;DHT22;25713;-35.352;149.036;2023-02-05T14:47:58;19.70;84.30
40023;DHT22;25713;-35.352;149.036;2023-02-05T15:52:36;19.30;85.50
40023;DHT22;25713;-35.352;149.036;2023-02-05T15:55:11;19.30;86.00
40023;DHT22;25713;-35.352;149.036;2023-02-05T15:57:44;19.30;86.00
40023;DHT22;25713;-35.352;149.036;2023-02-05T16:00:19;19.40;86.20
40023;DHT22;25713;-35.352;149.036;2023-02-05T16:02:57;19.30;86.10
40023;DHT22;25713;-35.352;149.036;2023-02-05T16:05:27;19.40;86.00
40023;DHT22;25713;-35.352;149.036;2023-02-05T16:07:59;19.40;86.10
40023;DHT22;25713;-35.352;149.036;2023-02-05T16:10:30;19.40;86.20
40023;DHT22;25713;-35.352;149.036;2023-02-05T16:13:01;19.40;86.00
40023;DHT22;25713;-35.352;149.036;2023-02-05T16:15:33;19.40;86.10
40023;DHT22;25713;-35.352;149.036;2023-02-05T16:18:06;19.50;86.00
40023;DHT22;25713;-35.352;149.036;2023-02-05T16:20:40;19.50;86.10
40023;DHT22;25713;-35.352;149.036;2023-02-05T16:23:22;19.40;86.00
40023;DHT22;25713;-35.352;149.036;2023-02-05T16:25:53;19.50;85.80
40023;DHT22;25713;-35.352;149.036;2023-02-05T16:28:29;19.50;85.90
40023;DHT22;25713;-35.352;149.036;2023-02-05T16:31:02;19.50;85.80
40023;DHT22;25713;-35.352;149.036;2023-02-05T16:33:36;19.50;85.80
40023;DHT22;25713;-35.352;149.036;2023-02-05T16:36:14;19.50;85.80
40023;DHT22;25713;-35.352;149.036;2023-02-05T16:38:50;19.50;85.80
40023;DHT22;25713;-35.352;149.036;2023-02-05T16:41:23;19.50;85.80
40023;DHT22;25713;-35.352;149.036;2023-02-05T16:43:53;19.50;85.90
40023;DHT22;25713;-35.352;149.036;2023-02-05T16:46:28;19.50;85.80
40023;DHT22;25713;-35.352;149.036;2023-02-05T16:48:59;19.40;85.70
40023;DHT22;25713;-35.352;149.036;2023-02-05T16:51:37;19.40;85.80
40023;DHT22;25713;-35.352;149.036;2023-02-05T16:54:32;19.40;85.90